sensor_id;sensor_type;location;lat;lon;timestamp;P1;durP1;ratioP1;P2;durP2;ratioP2
16669;SDS011;8448;52.034;5.158;2023-05-07T00:00:19;23.15;;;19.38;;
16669;SDS011;8448;52.034;5.158;2023-05-07T00:02:46;23.55;;;19.30;;
16669;SDS011;8448;52.034;5.158;2023-05-07T00:05:14;26.63;;;19.60;;
16669;SDS011;8448;52.034;5.158;2023-05-07T00:07:42;21.90;;;19.20;;
16669;SDS011;8448;52.034;5.158;2023-05-07T00:10:10;23.27;;;19.80;;
16669;SDS011;8448;52.034;5.158;2023-05-07T00:12:39;22.02;;;18.73;;
16669;SDS011;8448;52.034;5.158;2023-05-07T00:15:07;20.60;;;17.63;;
16669;SDS011;8448;52.034;5.158;2023-05-07T00:17:35;20.45;;;18.15;;
16669;SDS011;8448;52.034;5.158;2023-05-07T00:20:03;20.98;;;18.13;;
16669;SDS011;8448;52.034;5.158;2023-05-07T00:22:31;20.88;;;17.77;;
16669;SDS011;8448;52.034;5.158;2023-05-07T00:24:58;19.35;;;17.15;;
16669;SDS011;8448;52.034;5.158;2023-05-07T00:27:25;21.85;;;17.00;;
16669;SDS011;8448;52.034;5.158;2023-05-07T00:29:54;20.73;;;17.42;;
16669;SDS011;8448;52.034;5.158;2023-05-07T00:32:21;20.00;;;17.33;;
16669;SDS011;8448;52.034;5.158;2023-05-07T00:34:49;19.17;;;17.10;;
16669;SDS011;8448;52.034;5.158;2023-05-07T00:37:16;17.85;;;15.50;;
16669;SDS011;8448;52.034;5.158;2023-05-07T00:39:43;18.23;;;15.60;;
16669;SDS011;8448;52.034;5.158;2023-05-07T00:42:11;18.25;;;15.77;;
16669;SDS011;8448;52.034;5.158;2023-05-07T00:44:40;18.67;;;16.48;;
16669;SDS011;8448;52.034;5.158;2023-05-07T00:47:08;17.77;;;15.60;;
16669;SDS011;8448;52.034;5.158;2023-05-07T00:49:37;18.20;;;16.23;;
16669;SDS011;8448;52.034;5.158;2023-05-07T00:52:06;17.85;;;16.05;;
16669;SDS011;8448;52.034;5.158;2023-05-07T00:54:34;18.05;;;14.70;;
16669;SDS011;8448;52.034;5.158;2023-05-07T00:57:02;15.88;;;14.15;;
16669;SDS011;8448;52.034;5.158;2023-05-07T00:59:29;18.02;;;14.68;;
16669;SDS011;8448;52.034;5.158;2023-05-07T01:01:57;18.05;;;15.65;;
16669;SDS011;8448;52.034;5.158;2023-05-07T01:04:26;16.90;;;14.32;;
16669;SDS011;8448;52.034;5.158;2023-05-07T01:06:54;16.30;;;14.48;;
16669;SDS011;8448;52.034;5.158;2023-05-07T01:09:22;17.13;;;14.07;;
16669;SDS011;8448;52.034;5.158;2023-05-07T01:11:50;17.15;;;15.43;;
16669;SDS011;8448;52.034;5.158;2023-05-07T01:14:18;15.25;;;13.75;;
16669;SDS011;8448;52.034;5.158;2023-05-07T01:16:46;14.60;;;13.18;;
16669;SDS011;8448;52.034;5.158;2023-05-07T01:19:18;15.23;;;13.55;;
16669;SDS011;8448;52.034;5.158;2023-05-07T01:21:48;16.10;;;14.13;;
16669;SDS011;8448;52.034;5.158;2023-05-07T01:24:19;14.00;;;12.52;;
16669;SDS011;8448;52.034;5.158;2023-05-07T01:26:46;14.05;;;12.65;;
16669;SDS011;8448;52.034;5.158;2023-05-07T01:29:15;13.95;;;12.50;;
16669;SDS011;8448;52.034;5.158;2023-05-07T01:31:44;15.82;;;13.95;;
16669;SDS011;8448;52.034;5.158;2023-05-07T01:34:11;15.02;;;13.45;;
16669;SDS011;8448;52.034;5.158;2023-05-07T01:36:40;14.23;;;12.80;;
16669;SDS011;8448;52.034;5.158;2023-05-07T01:39:09;15.93;;;14.20;;
16669;SDS011;8448;52.034;5.158;2023-05-07T01:41:38;14.20;;;12.50;;
16669;SDS011;8448;52.034;5.158;2023-05-07T01:44:06;13.77;;;12.38;;
16669;SDS011;8448;52.034;5.158;2023-05-07T01:46:35;15.50;;;13.07;;
16669;SDS011;8448;52.034;5.158;2023-05-07T01:49:02;15.05;;;13.27;;
16669;SDS011;8448;52.034;5.158;2023-05-07T01:51:30;17.52;;;14.57;;
16669;SDS011;8448;52.034;5.158;2023-05-07T01:53:57;15.15;;;12.63;;
16669;SDS011;8448;52.034;5.158;2023-05-07T01:56:25;15.85;;;14.15;;
16669;SDS011;8448;52.034;5.158;2023-05-07T01:58:54;15.45;;;13.48;;
16669;SDS011;8448;52.034;5.158;2023-05-07T02:01:22;16.00;;;14.25;;
16669;SDS011;8448;52.034;5.158;2023-05-07T02:03:49;16.58;;;14.68;;
16669;SDS011;8448;52.034;5.158;2023-05-07T02:06:22;16.70;;;14.88;;
16669;SDS011;8448;52.034;5.158;2023-05-07T02:08:53;17.35;;;14.30;;
16669;SDS011;8448;52.034;5.158;2023-05-07T02:11:21;16.80;;;13.57;;
16669;SDS011;8448;52.034;5.158;2023-05-07T02:13:48;15.93;;;14.23;;
16669;SDS011;8448;52.034;5.158;2023-05-07T02:16:17;17.27;;;15.10;;
16669;SDS011;8448;52.034;5.158;2023-05-07T02:18:45;15.32;;;13.68;;
16669;SDS011;8448;52.034;5.158;2023-05-07T02:21:12;16.75;;;14.48;;
16669;SDS011;8448;52.034;5.158;2023-05-07T02:23:40;14.88;;;12.70;;
16669;SDS011;8448;52.034;5.158;2023-05-07T02:26:07;14.48;;;13.05;;
16669;SDS011;8448;52.034;5.158;2023-05-07T02:28:35;16.45;;;13.63;;
16669;SDS011;8448;52.034;5.158;2023-05-07T02:31:03;16.02;;;14.30;;
16669;SDS011;8448;52.034;5.158;2023-05-07T02:33:33;14.50;;;12.93;;
16669;SDS011;8448;52.034;5.158;2023-05-07T02:36:07;16.35;;;14.35;;
16669;SDS011;8448;52.034;5.158;2023-05-07T02:38:38;15.93;;;13.55;;
16669;SDS011;8448;52.034;5.158;2023-05-07T02:41:06;15.13;;;13.60;;
16669;SDS011;8448;52.034;5.158;2023-05-07T02:43:33;17.13;;;13.23;;
16669;SDS011;8448;52.034;5.158;2023-05-07T02:46:01;16.00;;;14.32;;
16669;SDS011;8448;52.034;5.158;2023-05-07T02:48:29;16.42;;;14.57;;
16669;SDS011;8448;52.034;5.158;2023-05-07T02:50:58;16.40;;;14.70;;
16669;SDS011;8448;52.034;5.158;2023-05-07T02:53:26;16.60;;;14.40;;
16669;SDS011;8448;52.034;5.158;2023-05-07T02:55:55;17.08;;;15.25;;
16669;SDS011;8448;52.034;5.158;2023-05-07T02:58:23;15.43;;;13.68;;
16669;SDS011;8448;52.034;5.158;2023-05-07T03:00:51;16.40;;;14.13;;
16669;SDS011;8448;52.034;5.158;2023-05-07T03:03:36;16.45;;;14.55;;
16669;SDS011;8448;52.034;5.158;2023-05-07T03:06:05;16.38;;;14.68;;
16669;SDS011;8448;52.034;5.158;2023-05-07T03:08:33;17.98;;;14.68;;
16669;SDS011;8448;52.034;5.158;2023-05-07T03:11:01;17.75;;;15.15;;
16669;SDS011;8448;52.034;5.158;2023-05-07T03:13:28;16.63;;;14.82;;
16669;SDS011;8448;52.034;5.158;2023-05-07T03:15:56;18.10;;;14.98;;
16669;SDS011;8448;52.034;5.158;2023-05-07T03:18:23;16.92;;;15.13;;
16669;SDS011;8448;52.034;5.158;2023-05-07T03:20:51;19.95;;;15.45;;
16669;SDS011;8448;52.034;5.158;2023-05-07T03:23:19;17.98;;;15.35;;
16669;SDS011;8448;52.034;5.158;2023-05-07T03:25:47;17.58;;;14.18;;
16669;SDS011;8448;52.034;5.158;2023-05-07T03:28:14;17.17;;;15.38;;
16669;SDS011;8448;52.034;5.158;2023-05-07T03:30:47;19.40;;;15.65;;
16669;SDS011;8448;52.034;5.158;2023-05-07T03:33:15;20.65;;;16.60;;
16669;SDS011;8448;52.034;5.158;2023-05-07T03:35:43;19.40;;;17.25;;
16669;SDS011;8448;52.034;5.158;2023-05-07T03:38:13;18.30;;;16.33;;
16669;SDS011;8448;52.034;5.158;2023-05-07T03:40:42;22.20;;;17.20;;
16669;SDS011;8448;52.034;5.158;2023-05-07T03:43:09;21.60;;;16.25;;
16669;SDS011;8448;52.034;5.158;2023-05-07T03:45:40;20.13;;;17.33;;
16669;SDS011;8448;52.034;5.158;2023-05-07T03:48:22;19.35;;;16.98;;
16669;SDS011;8448;52.034;5.158;2023-05-07T03:50:52;20.35;;;16.15;;
16669;SDS011;8448;52.034;5.158;2023-05-07T03:53:20;19.83;;;17.30;;
16669;SDS011;8448;52.034;5.158;2023-05-07T03:55:48;20.17;;;18.02;;
16669;SDS011;8448;52.034;5.158;2023-05-07T03:58:16;18.00;;;16.10;;
16669;SDS011;8448;52.034;5.158;2023-05-07T04:00:44;21.45;;;18.55;;
16669;SDS011;8448;52.034;5.158;2023-05-07T04:03:18;23.17;;;18.40;;
16669;SDS011;8448;52.034;5.158;2023-05-07T04:05:46;21.45;;;18.90;;
16669;SDS011;8448;52.034;5.158;2023-05-07T04:08:13;21.45;;;18.38;;
16669;SDS011;8448;52.034;5.158;2023-05-07T04:10:45;20.70;;;17.30;;
16669;SDS011;8448;52.034;5.158;2023-05-07T04:13:14;19.92;;;17.17;;
16669;SDS011;8448;52.034;5.158;2023-05-07T04:15:41;24.02;;;18.45;;
16669;SDS011;8448;52.034;5.158;2023-05-07T04:18:13;21.65;;;17.77;;
16669;SDS011;8448;52.034;5.158;2023-05-07T04:20:43;22.63;;;18.30;;
16669;SDS011;8448;52.034;5.158;2023-05-07T04:23:12;20.02;;;17.88;;
16669;SDS011;8448;52.034;5.158;2023-05-07T04:25:40;19.55;;;17.48;;
16669;SDS011;8448;52.034;5.158;2023-05-07T04:28:21;21.15;;;17.65;;
16669;SDS011;8448;52.034;5.158;2023-05-07T04:30:49;22.50;;;17.95;;
16669;SDS011;8448;52.034;5.158;2023-05-07T04:33:17;19.80;;;17.35;;
16669;SDS011;8448;52.034;5.158;2023-05-07T04:35:46;21.50;;;17.80;;
16669;SDS011;8448;52.034;5.158;2023-05-07T04:38:14;21.48;;;18.00;;
16669;SDS011;8448;52.034;5.158;2023-05-07T04:40:41;20.30;;;17.85;;
16669;SDS011;8448;52.034;5.158;2023-05-07T04:43:13;21.02;;;17.30;;
16669;SDS011;8448;52.034;5.158;2023-05-07T04:45:47;21.77;;;18.65;;
16669;SDS011;8448;52.034;5.158;2023-05-07T04:48:16;21.67;;;17.52;;
16669;SDS011;8448;52.034;5.158;2023-05-07T04:50:46;20.50;;;17.63;;
16669;SDS011;8448;52.034;5.158;2023-05-07T04:53:14;20.40;;;17.67;;
16669;SDS011;8448;52.034;5.158;2023-05-07T04:55:42;22.55;;;18.17;;
16669;SDS011;8448;52.034;5.158;2023-05-07T04:58:10;19.58;;;17.15;;
16669;SDS011;8448;52.034;5.158;2023-05-07T05:00:39;19.65;;;16.95;;
16669;SDS011;8448;52.034;5.158;2023-05-07T05:03:09;22.08;;;18.73;;
16669;SDS011;8448;52.034;5.158;2023-05-07T05:05:38;22.98;;;19.17;;
16669;SDS011;8448;52.034;5.158;2023-05-07T05:08:05;22.83;;;19.17;;
16669;SDS011;8448;52.034;5.158;2023-05-07T05:10:35;25.35;;;21.15;;
16669;SDS011;8448;52.034;5.158;2023-05-07T05:13:04;23.67;;;19.75;;
16669;SDS011;8448;52.034;5.158;2023-05-07T05:15:31;26.33;;;20.33;;
16669;SDS011;8448;52.034;5.158;2023-05-07T05:17:59;24.02;;;20.60;;
16669;SDS011;8448;52.034;5.158;2023-05-07T05:20:28;21.92;;;19.13;;
16669;SDS011;8448;52.034;5.158;2023-05-07T05:22:55;23.80;;;20.00;;
16669;SDS011;8448;52.034;5.158;2023-05-07T05:25:22;22.40;;;19.50;;
16669;SDS011;8448;52.034;5.158;2023-05-07T05:27:50;23.15;;;19.80;;
16669;SDS011;8448;52.034;5.158;2023-05-07T05:30:17;21.23;;;18.85;;
16669;SDS011;8448;52.034;5.158;2023-05-07T05:32:45;20.88;;;18.52;;
16669;SDS011;8448;52.034;5.158;2023-05-07T05:35:13;23.90;;;20.65;;
16669;SDS011;8448;52.034;5.158;2023-05-07T05:37:43;22.77;;;17.83;;
16669;SDS011;8448;52.034;5.158;2023-05-07T05:40:11;26.85;;;21.88;;
16669;SDS011;8448;52.034;5.158;2023-05-07T05:42:39;23.73;;;19.98;;
16669;SDS011;8448;52.034;5.158;2023-05-07T05:45:08;26.15;;;21.35;;
16669;SDS011;8448;52.034;5.158;2023-05-07T05:47:35;22.90;;;19.08;;
16669;SDS011;8448;52.034;5.158;2023-05-07T05:50:03;20.95;;;18.13;;
16669;SDS011;8448;52.034;5.158;2023-05-07T05:52:31;23.92;;;19.95;;
16669;SDS011;8448;52.034;5.158;2023-05-07T05:55:01;20.17;;;17.83;;
16669;SDS011;8448;52.034;5.158;2023-05-07T05:57:28;24.23;;;20.30;;
16669;SDS011;8448;52.034;5.158;2023-05-07T05:59:56;24.27;;;20.88;;
16669;SDS011;8448;52.034;5.158;2023-05-07T06:02:23;23.65;;;20.65;;
16669;SDS011;8448;52.034;5.158;2023-05-07T06:04:51;25.80;;;21.05;;
16669;SDS011;8448;52.034;5.158;2023-05-07T06:07:21;24.73;;;20.48;;
16669;SDS011;8448;52.034;5.158;2023-05-07T06:09:48;23.80;;;20.05;;
16669;SDS011;8448;52.034;5.158;2023-05-07T06:12:17;24.30;;;20.83;;
16669;SDS011;8448;52.034;5.158;2023-05-07T06:14:45;23.58;;;20.20;;
16669;SDS011;8448;52.034;5.158;2023-05-07T06:17:13;24.08;;;19.92;;
16669;SDS011;8448;52.034;5.158;2023-05-07T06:19:40;21.27;;;18.98;;
16669;SDS011;8448;52.034;5.158;2023-05-07T06:22:09;24.70;;;21.17;;
16669;SDS011;8448;52.034;5.158;2023-05-07T06:24:37;23.88;;;21.00;;
16669;SDS011;8448;52.034;5.158;2023-05-07T06:27:05;21.35;;;18.27;;
16669;SDS011;8448;52.034;5.158;2023-05-07T06:29:34;23.60;;;20.50;;
16669;SDS011;8448;52.034;5.158;2023-05-07T06:32:06;24.85;;;19.35;;
16669;SDS011;8448;52.034;5.158;2023-05-07T06:34:34;20.38;;;18.17;;
16669;SDS011;8448;52.034;5.158;2023-05-07T06:37:01;22.90;;;19.73;;
16669;SDS011;8448;52.034;5.158;2023-05-07T06:39:46;21.48;;;19.17;;
16669;SDS011;8448;52.034;5.158;2023-05-07T06:42:15;24.85;;;20.08;;
16669;SDS011;8448;52.034;5.158;2023-05-07T06:44:47;21.17;;;18.83;;
16669;SDS011;8448;52.034;5.158;2023-05-07T06:47:16;22.33;;;19.90;;
16669;SDS011;8448;52.034;5.158;2023-05-07T06:49:48;22.48;;;19.42;;
16669;SDS011;8448;52.034;5.158;2023-05-07T06:52:18;24.10;;;19.65;;
16669;SDS011;8448;52.034;5.158;2023-05-07T06:54:47;22.10;;;19.55;;
16669;SDS011;8448;52.034;5.158;2023-05-07T06:57:16;21.52;;;18.90;;
16669;SDS011;8448;52.034;5.158;2023-05-07T06:59:44;23.35;;;19.35;;
16669;SDS011;8448;52.034;5.158;2023-05-07T07:02:13;23.77;;;19.73;;
16669;SDS011;8448;52.034;5.158;2023-05-07T07:04:40;23.30;;;20.38;;
16669;SDS011;8448;52.034;5.158;2023-05-07T07:07:09;21.67;;;18.33;;
16669;SDS011;8448;52.034;5.158;2023-05-07T07:09:38;23.08;;;19.98;;
16669;SDS011;8448;52.034;5.158;2023-05-07T07:12:06;21.65;;;18.85;;
16669;SDS011;8448;52.034;5.158;2023-05-07T07:14:36;23.77;;;18.95;;
16669;SDS011;8448;52.034;5.158;2023-05-07T07:17:03;23.58;;;19.58;;
16669;SDS011;8448;52.034;5.158;2023-05-07T07:19:32;24.38;;;20.88;;
16669;SDS011;8448;52.034;5.158;2023-05-07T07:22:02;23.33;;;19.63;;
16669;SDS011;8448;52.034;5.158;2023-05-07T07:24:29;21.77;;;17.95;;
16669;SDS011;8448;52.034;5.158;2023-05-07T07:27:00;20.90;;;18.50;;
16669;SDS011;8448;52.034;5.158;2023-05-07T07:29:29;24.33;;;20.25;;
16669;SDS011;8448;52.034;5.158;2023-05-07T07:31:56;21.33;;;18.65;;
16669;SDS011;8448;52.034;5.158;2023-05-07T07:34:24;23.25;;;18.80;;
16669;SDS011;8448;52.034;5.158;2023-05-07T07:36:53;22.90;;;19.52;;
16669;SDS011;8448;52.034;5.158;2023-05-07T07:39:22;21.80;;;18.48;;
16669;SDS011;8448;52.034;5.158;2023-05-07T07:41:53;24.67;;;20.08;;
16669;SDS011;8448;52.034;5.158;2023-05-07T07:44:21;26.02;;;20.50;;
16669;SDS011;8448;52.034;5.158;2023-05-07T07:46:53;22.70;;;18.92;;
16669;SDS011;8448;52.034;5.158;2023-05-07T07:49:22;23.27;;;18.95;;
16669;SDS011;8448;52.034;5.158;2023-05-07T07:51:50;21.67;;;18.55;;
16669;SDS011;8448;52.034;5.158;2023-05-07T07:54:19;21.75;;;18.02;;
16669;SDS011;8448;52.034;5.158;2023-05-07T07:56:47;22.75;;;19.30;;
16669;SDS011;8448;52.034;5.158;2023-05-07T07:59:14;23.63;;;19.13;;
16669;SDS011;8448;52.034;5.158;2023-05-07T08:01:44;23.05;;;19.23;;
16669;SDS011;8448;52.034;5.158;2023-05-07T08:04:13;23.15;;;19.52;;
16669;SDS011;8448;52.034;5.158;2023-05-07T08:06:41;21.15;;;18.85;;
16669;SDS011;8448;52.034;5.158;2023-05-07T08:09:11;23.05;;;19.13;;
16669;SDS011;8448;52.034;5.158;2023-05-07T08:11:40;22.48;;;19.05;;
16669;SDS011;8448;52.034;5.158;2023-05-07T08:14:08;22.45;;;19.48;;
16669;SDS011;8448;52.034;5.158;2023-05-07T08:16:35;21.40;;;18.63;;
16669;SDS011;8448;52.034;5.158;2023-05-07T08:19:02;21.55;;;19.08;;
16669;SDS011;8448;52.034;5.158;2023-05-07T08:21:30;24.63;;;19.58;;
16669;SDS011;8448;52.034;5.158;2023-05-07T08:23:58;21.10;;;18.77;;
16669;SDS011;8448;52.034;5.158;2023-05-07T08:26:26;22.55;;;19.15;;
16669;SDS011;8448;52.034;5.158;2023-05-07T08:28:54;21.40;;;18.17;;
16669;SDS011;8448;52.034;5.158;2023-05-07T08:31:21;21.58;;;17.40;;
16669;SDS011;8448;52.034;5.158;2023-05-07T08:33:49;22.58;;;17.77;;
16669;SDS011;8448;52.034;5.158;2023-05-07T08:36:17;20.58;;;16.45;;
16669;SDS011;8448;52.034;5.158;2023-05-07T08:38:44;21.98;;;17.80;;
16669;SDS011;8448;52.034;5.158;2023-05-07T08:41:12;20.30;;;17.05;;
16669;SDS011;8448;52.034;5.158;2023-05-07T08:43:44;21.83;;;18.20;;
16669;SDS011;8448;52.034;5.158;2023-05-07T08:46:15;19.38;;;17.27;;
16669;SDS011;8448;52.034;5.158;2023-05-07T08:48:44;19.67;;;17.15;;
16669;SDS011;8448;52.034;5.158;2023-05-07T08:51:15;20.05;;;17.60;;
16669;SDS011;8448;52.034;5.158;2023-05-07T08:53:44;20.55;;;17.67;;
16669;SDS011;8448;52.034;5.158;2023-05-07T08:56:16;20.30;;;18.10;;
16669;SDS011;8448;52.034;5.158;2023-05-07T08:58:47;21.45;;;16.90;;
16669;SDS011;8448;52.034;5.158;2023-05-07T09:01:16;19.02;;;16.35;;
16669;SDS011;8448;52.034;5.158;2023-05-07T09:03:46;16.38;;;14.15;;
16669;SDS011;8448;52.034;5.158;2023-05-07T09:06:16;17.35;;;12.90;;
16669;SDS011;8448;52.034;5.158;2023-05-07T09:08:48;15.27;;;12.45;;
16669;SDS011;8448;52.034;5.158;2023-05-07T09:11:19;13.57;;;11.85;;
16669;SDS011;8448;52.034;5.158;2023-05-07T09:13:49;12.85;;;11.02;;
16669;SDS011;8448;52.034;5.158;2023-05-07T09:16:21;15.30;;;12.18;;
16669;SDS011;8448;52.034;5.158;2023-05-07T09:18:50;13.70;;;11.15;;
16669;SDS011;8448;52.034;5.158;2023-05-07T09:21:20;13.75;;;10.18;;
16669;SDS011;8448;52.034;5.158;2023-05-07T09:23:50;9.65;;;8.65;;
16669;SDS011;8448;52.034;5.158;2023-05-07T09:26:21;11.88;;;8.57;;
16669;SDS011;8448;52.034;5.158;2023-05-07T09:28:49;9.77;;;8.70;;
16669;SDS011;8448;52.034;5.158;2023-05-07T09:31:18;9.80;;;8.52;;
16669;SDS011;8448;52.034;5.158;2023-05-07T09:33:46;10.93;;;8.90;;
16669;SDS011;8448;52.034;5.158;2023-05-07T09:36:13;9.75;;;8.30;;
16669;SDS011;8448;52.034;5.158;2023-05-07T09:38:40;11.02;;;9.05;;
16669;SDS011;8448;52.034;5.158;2023-05-07T09:41:09;11.15;;;9.40;;
16669;SDS011;8448;52.034;5.158;2023-05-07T09:43:47;10.40;;;9.10;;
16669;SDS011;8448;52.034;5.158;2023-05-07T09:46:27;9.32;;;8.43;;
16669;SDS011;8448;52.034;5.158;2023-05-07T09:48:59;9.70;;;8.32;;
16669;SDS011;8448;52.034;5.158;2023-05-07T09:51:33;10.02;;;8.57;;
16669;SDS011;8448;52.034;5.158;2023-05-07T09:54:04;10.20;;;8.13;;
16669;SDS011;8448;52.034;5.158;2023-05-07T09:56:34;8.55;;;7.63;;
16669;SDS011;8448;52.034;5.158;2023-05-07T09:59:05;9.15;;;7.82;;
16669;SDS011;8448;52.034;5.158;2023-05-07T10:01:33;9.43;;;8.32;;
16669;SDS011;8448;52.034;5.158;2023-05-07T10:04:03;9.35;;;8.23;;
16669;SDS011;8448;52.034;5.158;2023-05-07T10:06:32;10.60;;;9.48;;
16669;SDS011;8448;52.034;5.158;2023-05-07T10:08:59;10.68;;;9.55;;
16669;SDS011;8448;52.034;5.158;2023-05-07T10:11:27;10.77;;;9.18;;
16669;SDS011;8448;52.034;5.158;2023-05-07T10:13:55;11.20;;;9.35;;
16669;SDS011;8448;52.034;5.158;2023-05-07T10:16:24;10.40;;;9.30;;
16669;SDS011;8448;52.034;5.158;2023-05-07T10:18:52;11.65;;;9.00;;
16669;SDS011;8448;52.034;5.158;2023-05-07T10:21:26;10.43;;;8.52;;
16669;SDS011;8448;52.034;5.158;2023-05-07T10:23:59;10.82;;;9.73;;
16669;SDS011;8448;52.034;5.158;2023-05-07T10:26:31;11.18;;;9.32;;
16669;SDS011;8448;52.034;5.158;2023-05-07T10:29:01;13.20;;;10.52;;
16669;SDS011;8448;52.034;5.158;2023-05-07T10:34:20;14.02;;;11.65;;
16669;SDS011;8448;52.034;5.158;2023-05-07T10:36:49;15.00;;;11.85;;
16669;SDS011;8448;52.034;5.158;2023-05-07T10:39:18;13.07;;;11.68;;
16669;SDS011;8448;52.034;5.158;2023-05-07T10:41:47;13.80;;;11.50;;
16669;SDS011;8448;52.034;5.158;2023-05-07T10:44:24;12.68;;;11.23;;
16669;SDS011;8448;52.034;5.158;2023-05-07T10:47:05;13.38;;;11.98;;
16669;SDS011;8448;52.034;5.158;2023-05-07T10:49:35;12.63;;;11.15;;
16669;SDS011;8448;52.034;5.158;2023-05-07T10:52:13;13.35;;;11.95;;
16669;SDS011;8448;52.034;5.158;2023-05-07T10:55:18;13.13;;;11.75;;
16669;SDS011;8448;52.034;5.158;2023-05-07T10:58:02;13.88;;;11.15;;
16669;SDS011;8448;52.034;5.158;2023-05-07T11:00:55;12.32;;;11.13;;
16669;SDS011;8448;52.034;5.158;2023-05-07T11:03:29;13.20;;;11.85;;
16669;SDS011;8448;52.034;5.158;2023-05-07T11:06:10;12.60;;;11.25;;
16669;SDS011;8448;52.034;5.158;2023-05-07T11:08:52;12.43;;;10.70;;
16669;SDS011;8448;52.034;5.158;2023-05-07T11:17:13;12.32;;;11.02;;
16669;SDS011;8448;52.034;5.158;2023-05-07T11:19:50;14.35;;;12.63;;
16669;SDS011;8448;52.034;5.158;2023-05-07T11:22:42;12.60;;;11.30;;
16669;SDS011;8448;52.034;5.158;2023-05-07T11:25:21;13.18;;;10.98;;
16669;SDS011;8448;52.034;5.158;2023-05-07T11:27:55;12.90;;;11.60;;
16669;SDS011;8448;52.034;5.158;2023-05-07T11:30:23;13.05;;;10.93;;
16669;SDS011;8448;52.034;5.158;2023-05-07T11:32:51;14.38;;;12.35;;
16669;SDS011;8448;52.034;5.158;2023-05-07T11:35:20;14.73;;;12.10;;
16669;SDS011;8448;52.034;5.158;2023-05-07T11:37:50;13.48;;;11.77;;
16669;SDS011;8448;52.034;5.158;2023-05-07T11:40:27;11.02;;;9.77;;
16669;SDS011;8448;52.034;5.158;2023-05-07T11:42:54;12.35;;;10.95;;
16669;SDS011;8448;52.034;5.158;2023-05-07T11:45:22;12.77;;;11.10;;
16669;SDS011;8448;52.034;5.158;2023-05-07T11:47:51;12.18;;;10.98;;
16669;SDS011;8448;52.034;5.158;2023-05-07T11:50:20;11.98;;;10.77;;
16669;SDS011;8448;52.034;5.158;2023-05-07T11:52:50;12.35;;;11.15;;
16669;SDS011;8448;52.034;5.158;2023-05-07T11:55:18;12.85;;;9.98;;
16669;SDS011;8448;52.034;5.158;2023-05-07T11:57:47;11.57;;;9.50;;
16669;SDS011;8448;52.034;5.158;2023-05-07T12:00:15;9.90;;;8.88;;
16669;SDS011;8448;52.034;5.158;2023-05-07T12:02:43;9.60;;;8.13;;
16669;SDS011;8448;52.034;5.158;2023-05-07T12:05:12;11.85;;;9.32;;
16669;SDS011;8448;52.034;5.158;2023-05-07T12:07:41;10.80;;;8.80;;
16669;SDS011;8448;52.034;5.158;2023-05-07T12:10:08;9.20;;;7.50;;
16669;SDS011;8448;52.034;5.158;2023-05-07T12:12:38;9.15;;;7.60;;
16669;SDS011;8448;52.034;5.158;2023-05-07T12:15:07;10.57;;;7.63;;
16669;SDS011;8448;52.034;5.158;2023-05-07T12:17:35;10.43;;;8.40;;
16669;SDS011;8448;52.034;5.158;2023-05-07T12:20:03;9.82;;;8.05;;
16669;SDS011;8448;52.034;5.158;2023-05-07T12:22:32;7.35;;;6.18;;
16669;SDS011;8448;52.034;5.158;2023-05-07T12:25:01;9.95;;;6.75;;
16669;SDS011;8448;52.034;5.158;2023-05-07T12:27:28;8.13;;;6.82;;
16669;SDS011;8448;52.034;5.158;2023-05-07T12:29:56;10.45;;;7.07;;
16669;SDS011;8448;52.034;5.158;2023-05-07T12:32:24;12.43;;;7.13;;
16669;SDS011;8448;52.034;5.158;2023-05-07T12:34:51;7.32;;;6.32;;
16669;SDS011;8448;52.034;5.158;2023-05-07T12:37:25;8.43;;;6.40;;
16669;SDS011;8448;52.034;5.158;2023-05-07T12:40:04;8.55;;;6.68;;
16669;SDS011;8448;52.034;5.158;2023-05-07T12:42:32;8.23;;;5.82;;
16669;SDS011;8448;52.034;5.158;2023-05-07T12:45:07;9.52;;;6.63;;
16669;SDS011;8448;52.034;5.158;2023-05-07T12:47:35;12.07;;;5.90;;
16669;SDS011;8448;52.034;5.158;2023-05-07T12:50:04;5.63;;;4.25;;
16669;SDS011;8448;52.034;5.158;2023-05-07T12:52:32;5.82;;;3.65;;
16669;SDS011;8448;52.034;5.158;2023-05-07T12:55:05;6.60;;;4.07;;
16669;SDS011;8448;52.034;5.158;2023-05-07T12:57:37;6.95;;;4.35;;
16669;SDS011;8448;52.034;5.158;2023-05-07T13:00:05;6.13;;;4.30;;
16669;SDS011;8448;52.034;5.158;2023-05-07T13:02:34;8.00;;;4.45;;
16669;SDS011;8448;52.034;5.158;2023-05-07T13:05:04;5.57;;;3.92;;
16669;SDS011;8448;52.034;5.158;2023-05-07T13:07:32;6.65;;;5.00;;
16669;SDS011;8448;52.034;5.158;2023-05-07T13:09:59;10.43;;;7.13;;
16669;SDS011;8448;52.034;5.158;2023-05-07T13:12:28;7.93;;;5.93;;
16669;SDS011;8448;52.034;5.158;2023-05-07T13:14:55;6.85;;;5.38;;
16669;SDS011;8448;52.034;5.158;2023-05-07T13:17:22;9.07;;;5.70;;
16669;SDS011;8448;52.034;5.158;2023-05-07T13:19:50;7.85;;;5.40;;
16669;SDS011;8448;52.034;5.158;2023-05-07T13:22:17;7.95;;;4.50;;
16669;SDS011;8448;52.034;5.158;2023-05-07T13:24:44;6.25;;;4.00;;
16669;SDS011;8448;52.034;5.158;2023-05-07T13:27:12;6.90;;;4.13;;
16669;SDS011;8448;52.034;5.158;2023-05-07T13:29:40;6.03;;;4.10;;
16669;SDS011;8448;52.034;5.158;2023-05-07T13:32:08;5.28;;;3.97;;
16669;SDS011;8448;52.034;5.158;2023-05-07T13:34:35;5.53;;;3.90;;
16669;SDS011;8448;52.034;5.158;2023-05-07T13:37:03;4.15;;;3.50;;
16669;SDS011;8448;52.034;5.158;2023-05-07T13:39:30;6.30;;;3.33;;
16669;SDS011;8448;52.034;5.158;2023-05-07T13:41:57;7.13;;;4.07;;
16669;SDS011;8448;52.034;5.158;2023-05-07T13:44:25;7.00;;;4.55;;
16669;SDS011;8448;52.034;5.158;2023-05-07T13:46:53;5.75;;;3.63;;
16669;SDS011;8448;52.034;5.158;2023-05-07T13:49:21;5.82;;;3.22;;
16669;SDS011;8448;52.034;5.158;2023-05-07T13:51:48;6.68;;;3.58;;
16669;SDS011;8448;52.034;5.158;2023-05-07T13:54:16;5.70;;;3.60;;
16669;SDS011;8448;52.034;5.158;2023-05-07T13:56:43;5.95;;;4.72;;
16669;SDS011;8448;52.034;5.158;2023-05-07T13:59:10;7.43;;;4.60;;
16669;SDS011;8448;52.034;5.158;2023-05-07T14:01:39;4.22;;;3.03;;
16669;SDS011;8448;52.034;5.158;2023-05-07T14:04:08;5.28;;;2.30;;
16669;SDS011;8448;52.034;5.158;2023-05-07T14:06:35;4.25;;;2.92;;
16669;SDS011;8448;52.034;5.158;2023-05-07T14:09:02;4.60;;;3.53;;
16669;SDS011;8448;52.034;5.158;2023-05-07T14:11:30;8.35;;;5.63;;
16669;SDS011;8448;52.034;5.158;2023-05-07T14:13:57;8.95;;;6.35;;
16669;SDS011;8448;52.034;5.158;2023-05-07T14:16:24;8.52;;;6.32;;
16669;SDS011;8448;52.034;5.158;2023-05-07T14:18:52;10.57;;;7.70;;
16669;SDS011;8448;52.034;5.158;2023-05-07T14:21:20;10.02;;;6.45;;
16669;SDS011;8448;52.034;5.158;2023-05-07T14:23:47;9.77;;;6.90;;
16669;SDS011;8448;52.034;5.158;2023-05-07T14:26:15;8.93;;;7.18;;
16669;SDS011;8448;52.034;5.158;2023-05-07T14:28:42;7.70;;;5.75;;
16669;SDS011;8448;52.034;5.158;2023-05-07T14:31:11;9.50;;;6.30;;
16669;SDS011;8448;52.034;5.158;2023-05-07T14:33:38;12.23;;;7.50;;
16669;SDS011;8448;52.034;5.158;2023-05-07T14:36:06;7.20;;;6.35;;
16669;SDS011;8448;52.034;5.158;2023-05-07T14:38:34;9.52;;;7.60;;
16669;SDS011;8448;52.034;5.158;2023-05-07T14:41:02;9.73;;;7.60;;
16669;SDS011;8448;52.034;5.158;2023-05-07T14:43:29;8.35;;;6.32;;
16669;SDS011;8448;52.034;5.158;2023-05-07T14:45:56;11.70;;;8.35;;
16669;SDS011;8448;52.034;5.158;2023-05-07T14:48:24;11.02;;;8.10;;
16669;SDS011;8448;52.034;5.158;2023-05-07T14:50:51;10.75;;;7.70;;
16669;SDS011;8448;52.034;5.158;2023-05-07T14:53:18;11.35;;;8.45;;
16669;SDS011;8448;52.034;5.158;2023-05-07T14:55:48;12.82;;;8.50;;
16669;SDS011;8448;52.034;5.158;2023-05-07T14:58:15;10.10;;;9.00;;
16669;SDS011;8448;52.034;5.158;2023-05-07T15:00:42;13.10;;;9.60;;